sensor_id;sensor_type;location;lat;lon;timestamp;pressure;altitude;pressure_sealevel;temperature;humidity
30856;BME280;17570;0.000;0.000;2023-03-01T00:01:41;97717.67;;;13.55;48.21
30856;BME280;17570;0.000;0.000;2023-03-01T00:04:09;97728.70;;;13.58;48.13
30856;BME280;17570;0.000;0.000;2023-03-01T00:06:36;97724.31;;;13.59;48.09
30856;BME280;17570;0.000;0.000;2023-03-01T00:09:04;97719.09;;;13.59;48.37
30856;BME280;17570;0.000;0.000;2023-03-01T00:11:32;97723.35;;;13.60;48.15
30856;BME280;17570;0.000;0.000;2023-03-01T00:14:01;97716.48;;;13.59;48.20
30856;BME280;17570;0.000;0.000;2023-03-01T00:16:31;97708.07;;;13.55;48.15
30856;BME280;17570;0.000;0.000;2023-03-01T00:19:02;97708.44;;;13.50;48.29
30856;BME280;17570;0.000;0.000;2023-03-01T00:21:29;97694.07;;;13.56;48.08
30856;BME280;17570;0.000;0.000;2023-03-01T00:23:57;97689.68;;;13.57;47.94
30856;BME280;17570;0.000;0.000;2023-03-01T00:26:25;97688.03;;;13.56;48.00
30856;BME280;17570;0.000;0.000;2023-03-01T00:28:53;97697.77;;;13.53;48.06
30856;BME280;17570;0.000;0.000;2023-03-01T00:31:22;97707.84;;;13.58;48.16
30856;BME280;17570;0.000;0.000;2023-03-01T00:33:54;97700.38;;;13.53;48.04
30856;BME280;17570;0.000;0.000;2023-03-01T00:36:25;97698.23;;;13.59;47.91
30856;BME280;17570;0.000;0.000;2023-03-01T00:38:53;97691.83;;;13.51;47.98
30856;BME280;17570;0.000;0.000;2023-03-01T00:41:21;97683.31;;;13.49;48.10
30856;BME280;17570;0.000;0.000;2023-03-01T00:43:49;97675.25;;;13.52;48.08
30856;BME280;17570;0.000;0.000;2023-03-01T00:46:18;97678.69;;;13.53;47.84
30856;BME280;17570;0.000;0.000;2023-03-01T00:48:46;97675.25;;;13.52;48.02
30856;BME280;17570;0.000;0.000;2023-03-01T00:51:19;97675.36;;;13.51;47.95
30856;BME280;17570;0.000;0.000;2023-03-01T00:53:47;97683.64;;;13.56;48.04
30856;BME280;17570;0.000;0.000;2023-03-01T00:56:15;97683.08;;;13.52;47.98
30856;BME280;17570;0.000;0.000;2023-03-01T00:58:43;97679.16;;;13.47;47.99
30856;BME280;17570;0.000;0.000;2023-03-01T01:01:14;97683.55;;;13.46;48.12
30856;BME280;17570;0.000;0.000;2023-03-01T01:03:46;97678.33;;;13.46;48.07
30856;BME280;17570;0.000;0.000;2023-03-01T01:06:27;97671.47;;;13.45;47.98
30856;BME280;17570;0.000;0.000;2023-03-01T01:08:55;97671.33;;;13.47;48.05
30856;BME280;17570;0.000;0.000;2023-03-01T01:11:24;97671.01;;;13.40;48.16
30856;BME280;17570;0.000;0.000;2023-03-01T01:13:52;97664.70;;;13.43;48.13
30856;BME280;17570;0.000;0.000;2023-03-01T01:16:21;97655.36;;;13.40;48.14
30856;BME280;17570;0.000;0.000;2023-03-01T01:18:49;97657.60;;;13.45;48.14
30856;BME280;17570;0.000;0.000;2023-03-01T01:21:18;97654.76;;;13.48;48.03
30856;BME280;17570;0.000;0.000;2023-03-01T01:23:46;97661.36;;;13.52;47.75
30856;BME280;17570;0.000;0.000;2023-03-01T01:26:14;97660.30;;;13.55;47.92
30856;BME280;17570;0.000;0.000;2023-03-01T01:28:42;97658.05;;;13.50;47.78
30856;BME280;17570;0.000;0.000;2023-03-01T01:31:10;97643.09;;;13.52;47.83
30856;BME280;17570;0.000;0.000;2023-03-01T01:33:37;97646.80;;;13.49;47.79
30856;BME280;17570;0.000;0.000;2023-03-01T01:36:06;97633.03;;;13.47;47.71
30856;BME280;17570;0.000;0.000;2023-03-01T01:38:34;97636.61;;;13.46;47.79
30856;BME280;17570;0.000;0.000;2023-03-01T01:41:02;97637.56;;;13.45;47.85
30856;BME280;17570;0.000;0.000;2023-03-01T01:43:35;97643.37;;;13.49;47.80
30856;BME280;17570;0.000;0.000;2023-03-01T01:48:52;97649.45;;;13.38;48.02
30856;BME280;17570;0.000;0.000;2023-03-01T01:51:23;97647.67;;;13.39;47.93
30856;BME280;17570;0.000;0.000;2023-03-01T01:53:46;97640.91;;;13.36;47.99
30856;BME280;17570;0.000;0.000;2023-03-01T01:56:14;97644.47;;;13.35;48.00
30856;BME280;17570;0.000;0.000;2023-03-01T01:58:43;97636.97;;;13.42;48.19
30856;BME280;17570;0.000;0.000;2023-03-01T02:01:11;97637.56;;;13.45;48.05
30856;BME280;17570;0.000;0.000;2023-03-01T02:03:39;97642.78;;;13.45;47.91
30856;BME280;17570;0.000;0.000;2023-03-01T02:06:19;97631.66;;;13.43;47.75
30856;BME280;17570;0.000;0.000;2023-03-01T02:08:47;97643.60;;;13.46;47.72
30856;BME280;17570;0.000;0.000;2023-03-01T02:11:15;97630.48;;;13.36;47.94
30856;BME280;17570;0.000;0.000;2023-03-01T02:13:46;97635.45;;;13.39;47.87
30856;BME280;17570;0.000;0.000;2023-03-01T02:16:15;97629.73;;;13.45;47.85
30856;BME280;17570;0.000;0.000;2023-03-01T02:18:43;97629.98;;;13.42;47.87
30856;BME280;17570;0.000;0.000;2023-03-01T02:23:40;97633.54;;;13.41;47.76
30856;BME280;17570;0.000;0.000;2023-03-01T02:26:09;97632.95;;;13.38;47.98
30856;BME280;17570;0.000;0.000;2023-03-01T02:28:38;97631.57;;;13.34;47.89
30856;BME280;17570;0.000;0.000;2023-03-01T02:31:07;97627.41;;;13.31;47.91
30856;BME280;17570;0.000;0.000;2023-03-01T02:33:53;97625.77;;;13.30;47.94
30856;BME280;17570;0.000;0.000;2023-03-01T02:36:25;97622.93;;;13.22;48.24
30856;BME280;17570;0.000;0.000;2023-03-01T02:38:53;97630.25;;;13.28;48.21
30856;BME280;17570;0.000;0.000;2023-03-01T02:41:22;97621.50;;;13.29;48.22
30856;BME280;17570;0.000;0.000;2023-03-01T02:43:51;97622.70;;;13.25;47.94
30856;BME280;17570;0.000;0.000;2023-03-01T02:46:24;97622.20;;;13.31;47.86
30856;BME280;17570;0.000;0.000;2023-03-01T02:48:54;97633.69;;;13.28;48.01
30856;BME280;17570;0.000;0.000;2023-03-01T02:56:47;97632.73;;;13.18;48.29
30856;BME280;17570;0.000;0.000;2023-03-01T02:59:18;97615.12;;;13.11;48.53
30856;BME280;17570;0.000;0.000;2023-03-01T03:01:47;97625.05;;;13.17;48.36
30856;BME280;17570;0.000;0.000;2023-03-01T03:04:17;97627.42;;;13.20;48.28
30856;BME280;17570;0.000;0.000;2023-03-01T03:06:47;97629.70;;;13.24;48.05
30856;BME280;17570;0.000;0.000;2023-03-01T03:09:15;97636.66;;;13.24;48.00
30856;BME280;17570;0.000;0.000;2023-03-01T03:11:43;97637.84;;;13.20;48.21
30856;BME280;17570;0.000;0.000;2023-03-01T03:14:12;97629.17;;;13.19;48.26
30856;BME280;17570;0.000;0.000;2023-03-01T03:16:41;97633.36;;;13.22;48.41
30856;BME280;17570;0.000;0.000;2023-03-01T03:19:09;97627.42;;;13.20;48.38
30856;BME280;17570;0.000;0.000;2023-03-01T03:21:37;97633.36;;;13.22;48.34
30856;BME280;17570;0.000;0.000;2023-03-01T03:24:04;97630.62;;;13.23;48.32
30856;BME280;17570;0.000;0.000;2023-03-01T03:26:32;97635.37;;;13.30;48.25
30856;BME280;17570;0.000;0.000;2023-03-01T03:29:00;97630.02;;;13.31;48.00
30856;BME280;17570;0.000;0.000;2023-03-01T03:31:27;97625.17;;;13.26;48.27
30856;BME280;17570;0.000;0.000;2023-03-01T03:33:55;97637.61;;;13.23;48.17
30856;BME280;17570;0.000;0.000;2023-03-01T03:36:23;97634.18;;;13.22;47.94
30856;BME280;17570;0.000;0.000;2023-03-01T03:38:51;97633.36;;;13.22;48.26
30856;BME280;17570;0.000;0.000;2023-03-01T03:41:18;97630.03;;;13.20;48.06
30856;BME280;17570;0.000;0.000;2023-03-01T03:43:46;97634.38;;;13.19;48.17
30856;BME280;17570;0.000;0.000;2023-03-01T03:46:33;97629.44;;;13.16;48.22
30856;BME280;17570;0.000;0.000;2023-03-01T03:49:18;97626.73;;;13.07;48.49
30856;BME280;17570;0.000;0.000;2023-03-01T03:51:46;97623.76;;;13.00;48.68
30856;BME280;17570;0.000;0.000;2023-03-01T03:54:13;97627.55;;;13.07;48.50
30856;BME280;17570;0.000;0.000;2023-03-01T03:56:41;97629.08;;;13.10;48.35
30856;BME280;17570;0.000;0.000;2023-03-01T03:59:10;97630.75;;;13.11;48.41
30856;BME280;17570;0.000;0.000;2023-03-01T04:04:23;97622.80;;;13.12;48.42
30856;BME280;17570;0.000;0.000;2023-03-01T04:06:50;97623.53;;;13.03;48.67
30856;BME280;17570;0.000;0.000;2023-03-01T04:09:17;97628.15;;;13.11;48.73
30856;BME280;17570;0.000;0.000;2023-03-01T04:11:45;97623.03;;;13.09;48.46
30856;BME280;17570;0.000;0.000;2023-03-01T04:14:12;97628.38;;;13.08;48.54
30856;BME280;17570;0.000;0.000;2023-03-01T04:16:40;97626.23;;;13.13;48.56
30856;BME280;17570;0.000;0.000;2023-03-01T04:19:07;97632.87;;;13.17;48.56
30856;BME280;17570;0.000;0.000;2023-03-01T04:21:35;97631.22;;;13.16;48.46
30856;BME280;17570;0.000;0.000;2023-03-01T04:24:03;97625.28;;;13.14;48.45
30856;BME280;17570;0.000;0.000;2023-03-01T04:26:31;97637.36;;;13.15;48.30
30856;BME280;17570;0.000;0.000;2023-03-01T04:28:58;97639.14;;;13.14;48.39
30856;BME280;17570;0.000;0.000;2023-03-01T04:31:25;97637.48;;;13.13;48.33
30856;BME280;17570;0.000;0.000;2023-03-01T04:33:54;97639.63;;;13.08;48.48
30856;BME280;17570;0.000;0.000;2023-03-01T04:36:23;97637.84;;;13.09;48.57
30856;BME280;17570;0.000;0.000;2023-03-01T04:38:51;97633.59;;;13.08;48.54
30856;BME280;17570;0.000;0.000;2023-03-01T04:41:19;97641.41;;;13.08;48.40
30856;BME280;17570;0.000;0.000;2023-03-01T04:43:47;97634.78;;;13.03;48.58
30856;BME280;17570;0.000;0.000;2023-03-01T04:46:16;97637.16;;;13.07;48.57
30856;BME280;17570;0.000;0.000;2023-03-01T04:48:44;97636.89;;;13.10;48.48
30856;BME280;17570;0.000;0.000;2023-03-01T04:51:11;97631.22;;;13.05;48.64
30856;BME280;17570;0.000;0.000;2023-03-01T04:53:43;97634.78;;;13.03;48.44
30856;BME280;17570;0.000;0.000;2023-03-01T04:56:11;97632.17;;;13.03;48.49
30856;BME280;17570;0.000;0.000;2023-03-01T04:58:40;97638.11;;;13.06;48.43
30856;BME280;17570;0.000;0.000;2023-03-01T05:01:11;97630.52;;;13.02;48.61
30856;BME280;17570;0.000;0.000;2023-03-01T05:03:38;97632.17;;;13.03;48.59
30856;BME280;17570;0.000;0.000;2023-03-01T05:06:06;97633.95;;;13.03;48.77
30856;BME280;17570;0.000;0.000;2023-03-01T05:08:33;97632.17;;;13.03;48.63
30856;BME280;17570;0.000;0.000;2023-03-01T05:11:02;97635.61;;;13.04;48.33
30856;BME280;17570;0.000;0.000;2023-03-01T05:13:30;97641.77;;;13.03;48.72
30856;BME280;17570;0.000;0.000;2023-03-01T05:15:59;97635.61;;;13.04;48.72
30856;BME280;17570;0.000;0.000;2023-03-01T05:18:28;97636.33;;;13.06;48.61
30856;BME280;17570;0.000;0.000;2023-03-01T05:21:01;97641.64;;;13.05;48.53
30856;BME280;17570;0.000;0.000;2023-03-01T05:23:25;97636.20;;;13.08;48.35
30856;BME280;17570;0.000;0.000;2023-03-01T05:25:56;97633.59;;;13.08;48.27
30856;BME280;17570;0.000;0.000;2023-03-01T05:28:23;97635.38;;;13.07;48.30
30856;BME280;17570;0.000;0.000;2023-03-01T05:30:51;97628.52;;;13.06;48.28
30856;BME280;17570;0.000;0.000;2023-03-01T05:33:18;97636.20;;;13.08;48.19
30856;BME280;17570;0.000;0.000;2023-03-01T05:35:47;97636.06;;;13.09;48.16
30856;BME280;17570;0.000;0.000;2023-03-01T05:38:15;97631.12;;;13.06;48.27
30856;BME280;17570;0.000;0.000;2023-03-01T05:40:44;97631.48;;;13.01;48.37
30856;BME280;17570;0.000;0.000;2023-03-01T05:43:13;97631.48;;;13.01;48.49
30856;BME280;17570;0.000;0.000;2023-03-01T05:45:41;97639.16;;;13.03;48.45
30856;BME280;17570;0.000;0.000;2023-03-01T05:48:09;97641.08;;;13.01;48.64
30856;BME280;17570;0.000;0.000;2023-03-01T05:50:38;97648.04;;;13.00;48.75
30856;BME280;17570;0.000;0.000;2023-03-01T05:53:07;97649.45;;;13.05;48.57
30856;BME280;17570;0.000;0.000;2023-03-01T05:55:35;97644.97;;;13.07;48.51
30856;BME280;17570;0.000;0.000;2023-03-01T05:58:04;97645.93;;;13.06;48.44
30856;BME280;17570;0.000;0.000;2023-03-01T06:00:32;97653.62;;;13.07;48.54
30856;BME280;17570;0.000;0.000;2023-03-01T06:03:00;97646.16;;;13.02;48.60
30856;BME280;17570;0.000;0.000;2023-03-01T06:05:28;97646.03;;;13.04;48.63
30856;BME280;17570;0.000;0.000;2023-03-01T06:07:58;97652.53;;;13.21;49.50
30856;BME280;17570;0.000;0.000;2023-03-01T06:10:25;97651.84;;;13.30;49.96
30856;BME280;17570;0.000;0.000;2023-03-01T06:12:53;97652.06;;;13.27;49.70
30856;BME280;17570;0.000;0.000;2023-03-01T06:15:20;97646.27;;;13.23;49.78
30856;BME280;17570;0.000;0.000;2023-03-01T06:17:48;97651.80;;;13.19;49.90
30856;BME280;17570;0.000;0.000;2023-03-01T06:20:17;97657.98;;;13.18;49.51
30856;BME280;17570;0.000;0.000;2023-03-01T06:22:45;97658.93;;;13.17;49.45
30856;BME280;17570;0.000;0.000;2023-03-01T06:25:13;97662.59;;;13.14;49.25
30856;BME280;17570;0.000;0.000;2023-03-01T06:27:41;97658.93;;;13.17;48.96
30856;BME280;17570;0.000;0.000;2023-03-01T06:30:09;97654.55;;;13.17;49.14
30856;BME280;17570;0.000;0.000;2023-03-01T06:32:38;97650.16;;;13.18;49.18
30856;BME280;17570;0.000;0.000;2023-03-01T06:35:07;97651.70;;;13.20;48.77
30856;BME280;17570;0.000;0.000;2023-03-01T06:37:35;97644.71;;;13.21;48.77
30856;BME280;17570;0.000;0.000;2023-03-01T06:40:06;97649.00;;;13.22;48.71
30856;BME280;17570;0.000;0.000;2023-03-01T06:42:34;97653.25;;;13.23;48.82
30856;BME280;17570;0.000;0.000;2023-03-01T06:45:02;97654.21;;;13.22;49.12
30856;BME280;17570;0.000;0.000;2023-03-01T06:47:30;97648.50;;;13.28;48.65
30856;BME280;17570;0.000;0.000;2023-03-01T06:49:59;97649.33;;;13.28;48.74
30856;BME280;17570;0.000;0.000;2023-03-01T06:52:28;97648.41;;;13.30;48.56
30856;BME280;17570;0.000;0.000;2023-03-01T06:54:55;97642.09;;;13.32;48.66
30856;BME280;17570;0.000;0.000;2023-03-01T06:57:23;97537.02;;;12.66;48.54
30856;BME280;17570;0.000;0.000;2023-03-01T06:59:50;97645.43;;;13.34;48.11
30856;BME280;17570;0.000;0.000;2023-03-01T07:02:18;97648.73;;;13.36;48.20
30856;BME280;17570;0.000;0.000;2023-03-01T07:04:45;97648.03;;;13.34;48.14
30856;BME280;17570;0.000;0.000;2023-03-01T07:07:13;97652.42;;;13.34;48.24
30856;BME280;17570;0.000;0.000;2023-03-01T07:09:40;97659.98;;;13.37;48.02
30856;BME280;17570;0.000;0.000;2023-03-01T07:12:08;97648.86;;;13.35;48.14
30856;BME280;17570;0.000;0.000;2023-03-01T07:14:35;97647.91;;;13.36;47.81
30856;BME280;17570;0.000;0.000;2023-03-01T07:17:06;97649.55;;;13.37;47.99
30856;BME280;17570;0.000;0.000;2023-03-01T07:19:34;97642.69;;;13.36;48.22
30856;BME280;17570;0.000;0.000;2023-03-01T07:22:02;97647.91;;;13.36;48.15
30856;BME280;17570;0.000;0.000;2023-03-01T07:24:30;97645.16;;;13.37;47.98
30856;BME280;17570;0.000;0.000;2023-03-01T07:26:58;97644.34;;;13.37;47.71
30856;BME280;17570;0.000;0.000;2023-03-01T07:29:25;97643.52;;;13.36;47.76
30856;BME280;17570;0.000;0.000;2023-03-01T07:31:56;97643.52;;;13.36;48.11
30856;BME280;17570;0.000;0.000;2023-03-01T07:34:24;97634.50;;;13.40;47.99
30856;BME280;17570;0.000;0.000;2023-03-01T07:36:53;97636.41;;;13.38;47.90
30856;BME280;17570;0.000;0.000;2023-03-01T07:39:21;97643.28;;;13.39;47.68
30856;BME280;17570;0.000;0.000;2023-03-01T07:41:51;97640.41;;;13.42;47.68
30856;BME280;17570;0.000;0.000;2023-03-01T07:44:20;97640.54;;;13.41;47.72
30856;BME280;17570;0.000;0.000;2023-03-01T07:46:47;97637.70;;;13.44;47.82
30856;BME280;17570;0.000;0.000;2023-03-01T07:49:15;97634.95;;;13.45;47.91
30856;BME280;17570;0.000;0.000;2023-03-01T07:51:43;97642.55;;;13.48;47.72
30856;BME280;17570;0.000;0.000;2023-03-01T07:54:11;97630.20;;;13.50;47.80
30856;BME280;17570;0.000;0.000;2023-03-01T07:56:38;97632.11;;;13.48;47.78
30856;BME280;17570;0.000;0.000;2023-03-01T07:59:07;97630.91;;;13.52;47.52
30856;BME280;17570;0.000;0.000;2023-03-01T08:01:34;97632.43;;;13.55;47.55
30856;BME280;17570;0.000;0.000;2023-03-01T08:04:01;97637.52;;;13.57;47.49
30856;BME280;17570;0.000;0.000;2023-03-01T08:06:31;97635.86;;;13.56;47.45
30856;BME280;17570;0.000;0.000;2023-03-01T08:08:58;97636.69;;;13.56;47.53
30856;BME280;17570;0.000;0.000;2023-03-01T08:11:26;97634.80;;;13.58;47.63
30856;BME280;17570;0.000;0.000;2023-03-01T08:13:55;97638.23;;;13.59;47.42
30856;BME280;17570;0.000;0.000;2023-03-01T08:16:23;97634.67;;;13.60;47.52
30856;BME280;17570;0.000;0.000;2023-03-01T08:18:51;97636.30;;;13.72;48.95
30856;BME280;17570;0.000;0.000;2023-03-01T08:21:18;97641.20;;;13.86;51.53
30856;BME280;17570;0.000;0.000;2023-03-01T08:23:46;97632.35;;;13.98;51.39
30856;BME280;17570;0.000;0.000;2023-03-01T08:26:14;97631.59;;;14.08;50.29
30856;BME280;17570;0.000;0.000;2023-03-01T08:28:41;97633.00;;;14.12;48.79
30856;BME280;17570;0.000;0.000;2023-03-01T08:31:20;97632.75;;;14.15;49.87
30856;BME280;17570;0.000;0.000;2023-03-01T08:33:48;97626.33;;;14.19;51.19
30856;BME280;17570;0.000;0.000;2023-03-01T08:36:17;97628.94;;;14.19;50.78
30856;BME280;17570;0.000;0.000;2023-03-01T08:38:47;97624.84;;;14.26;50.19
30856;BME280;17570;0.000;0.000;2023-03-01T08:41:15;97628.02;;;14.29;48.67
30856;BME280;17570;0.000;0.000;2023-03-01T08:43:42;97626.81;;;14.34;48.15
30856;BME280;17570;0.000;0.000;2023-03-01T08:46:10;97632.62;;;14.37;47.47
30856;BME280;17570;0.000;0.000;2023-03-01T08:48:37;97626.67;;;14.35;47.09
30856;BME280;17570;0.000;0.000;2023-03-01T08:51:17;97627.39;;;14.37;47.18
30856;BME280;17570;0.000;0.000;2023-03-01T08:53:40;97626.81;;;14.34;46.48
30856;BME280;17570;0.000;0.000;2023-03-01T08:56:14;97635.61;;;14.33;46.59
30856;BME280;17570;0.000;0.000;2023-03-01T08:58:47;97631.22;;;14.33;46.31
30856;BME280;17570;0.000;0.000;2023-03-01T09:01:15;97637.41;;;14.32;46.31
30856;BME280;17570;0.000;0.000;2023-03-01T09:03:43;97629.56;;;14.32;46.70
30856;BME280;17570;0.000;0.000;2023-03-01T09:06:11;97637.84;;;14.37;46.11
30856;BME280;17570;0.000;0.000;2023-03-01T09:08:39;97630.83;;;14.38;46.21
30856;BME280;17570;0.000;0.000;2023-03-01T09:11:08;97629.86;;;14.39;45.98
30856;BME280;17570;0.000;0.000;2023-03-01T09:13:36;97624.89;;;14.36;46.13
30856;BME280;17570;0.000;0.000;2023-03-01T09:16:06;97629.48;;;14.43;46.74
30856;BME280;17570;0.000;0.000;2023-03-01T09:18:34;97625.87;;;14.56;48.42
30856;BME280;17570;0.000;0.000;2023-03-01T09:21:03;97619.58;;;14.68;48.00
30856;BME280;17570;0.000;0.000;2023-03-01T09:23:38;97625.66;;;14.78;47.57
30856;BME280;17570;0.000;0.000;2023-03-01T09:26:03;97623.63;;;14.82;46.38
30856;BME280;17570;0.000;0.000;2023-03-01T09:28:30;97617.57;;;14.81;46.28
30856;BME280;17570;0.000;0.000;2023-03-01T09:30:58;97629.81;;;14.80;46.28
30856;BME280;17570;0.000;0.000;2023-03-01T09:33:26;97628.02;;;14.81;45.47
30856;BME280;17570;0.000;0.000;2023-03-01T09:36:01;97626.38;;;14.80;45.20
30856;BME280;17570;0.000;0.000;2023-03-01T09:38:29;97630.20;;;14.76;45.32
30856;BME280;17570;0.000;0.000;2023-03-01T09:40:57;97519.19;;;13.99;45.04
30856;BME280;17570;0.000;0.000;2023-03-01T09:43:31;97631.17;;;14.75;44.94
30856;BME280;17570;0.000;0.000;2023-03-01T09:45:59;97631.75;;;14.78;45.67
30856;BME280;17570;0.000;0.000;2023-03-01T09:48:26;97627.34;;;14.79;47.44
30856;BME280;17570;0.000;0.000;2023-03-01T09:50:54;97629.27;;;14.87;46.89
30856;BME280;17570;0.000;0.000;2023-03-01T09:53:26;97620.21;;;14.91;46.51
30856;BME280;17570;0.000;0.000;2023-03-01T09:55:58;97629.02;;;14.90;46.46
30856;BME280;17570;0.000;0.000;2023-03-01T10:01:21;97625.59;;;14.89;45.64
30856;BME280;17570;0.000;0.000;2023-03-01T10:03:48;97626.38;;;14.80;45.40
30856;BME280;17570;0.000;0.000;2023-03-01T10:06:20;97625.66;;;14.78;45.13
30856;BME280;17570;0.000;0.000;2023-03-01T10:11:20;97615.20;;;14.78;45.39
30856;BME280;17570;0.000;0.000;2023-03-01T10:14:05;97613.56;;;14.77;45.14
30856;BME280;17570;0.000;0.000;2023-03-01T10:16:56;97618.11;;;14.75;45.65
30856;BME280;17570;0.000;0.000;2023-03-01T10:19:27;97610.23;;;14.65;45.69
30856;BME280;17570;0.000;0.000;2023-03-01T10:21:49;97612.27;;;14.62;46.07
30856;BME280;17570;0.000;0.000;2023-03-01T10:24:20;97605.58;;;14.69;46.07
30856;BME280;17570;0.000;0.000;2023-03-01T10:29:17;97601.72;;;14.73;45.40
30856;BME280;17570;0.000;0.000;2023-03-01T10:31:47;97598.99;;;14.74;45.06
30856;BME280;17570;0.000;0.000;2023-03-01T10:34:19;97596.23;;;14.76;44.96
30856;BME280;17570;0.000;0.000;2023-03-01T10:36:47;97589.22;;;14.76;44.99
30856;BME280;17570;0.000;0.000;2023-03-01T10:39:14;97588.39;;;14.76;44.73
30856;BME280;17570;0.000;0.000;2023-03-01T10:41:53;97584.81;;;14.77;44.80
30856;BME280;17570;0.000;0.000;2023-03-01T10:44:37;97582.91;;;14.79;45.18
30856;BME280;17570;0.000;0.000;2023-03-01T10:47:04;97583.71;;;14.70;44.84
30856;BME280;17570;0.000;0.000;2023-03-01T10:49:32;97590.30;;;14.64;45.91
30856;BME280;17570;0.000;0.000;2023-03-01T10:52:10;97581.35;;;14.67;45.25
30856;BME280;17570;0.000;0.000;2023-03-01T10:54:29;97584.39;;;14.72;44.73
30856;BME280;17570;0.000;0.000;2023-03-01T10:56:58;97584.25;;;14.73;45.89
30856;BME280;17570;0.000;0.000;2023-03-01T10:59:33;97584.39;;;14.72;44.98
30856;BME280;17570;0.000;0.000;2023-03-01T11:02:03;97582.60;;;14.72;45.39
30856;BME280;17570;0.000;0.000;2023-03-01T11:04:30;97578.59;;;14.68;44.65
30856;BME280;17570;0.000;0.000;2023-03-01T11:06:59;97574.22;;;14.69;44.46
30856;BME280;17570;0.000;0.000;2023-03-01T11:09:30;97573.94;;;14.72;44.66
30856;BME280;17570;0.000;0.000;2023-03-01T11:11:58;97569.00;;;14.69;44.44
30856;BME280;17570;0.000;0.000;2023-03-01T11:14:27;97567.32;;;14.68;44.38
30856;BME280;17570;0.000;0.000;2023-03-01T11:17:03;97559.63;;;14.66;44.67
30856;BME280;17570;0.000;0.000;2023-03-01T11:19:31;97554.25;;;14.68;44.90
30856;BME280;17570;0.000;0.000;2023-03-01T11:24:39;97556.19;;;14.66;44.78
30856;BME280;17570;0.000;0.000;2023-03-01T11:27:41;97549.43;;;14.63;45.29
30856;BME280;17570;0.000;0.000;2023-03-01T11:29:43;97553.15;;;14.61;45.34
30856;BME280;17570;0.000;0.000;2023-03-01T11:32:11;97549.83;;;14.59;45.48
30856;BME280;17570;0.000;0.000;2023-03-01T11:34:47;97552.19;;;14.62;45.16
30856;BME280;17570;0.000;0.000;2023-03-01T11:37:22;97542.70;;;14.61;45.34
30856;BME280;17570;0.000;0.000;2023-03-01T11:39:58;97538.44;;;14.60;45.79
30856;BME280;17570;0.000;0.000;2023-03-01T11:42:21;97537.90;;;14.66;47.85
30856;BME280;17570;0.000;0.000;2023-03-01T11:44:50;97533.52;;;14.76;48.27
30856;BME280;17570;0.000;0.000;2023-03-01T11:47:23;97530.92;;;14.86;47.17
30856;BME280;17570;0.000;0.000;2023-03-01T11:49:52;97524.73;;;14.87;47.20
30856;BME280;17570;0.000;0.000;2023-03-01T11:52:36;97528.88;;;14.89;46.38
30856;BME280;17570;0.000;0.000;2023-03-01T11:55:07;97520.89;;;14.91;46.17
30856;BME280;17570;0.000;0.000;2023-03-01T11:57:43;97518.00;;;14.84;46.05
30856;BME280;17570;0.000;0.000;2023-03-01T12:02:47;97512.89;;;14.83;45.67
30856;BME280;17570;0.000;0.000;2023-03-01T12:07:54;97523.23;;;14.84;45.23
30856;BME280;17570;0.000;0.000;2023-03-01T12:10:23;97522.66;;;14.80;45.28
30856;BME280;17570;0.000;0.000;2023-03-01T12:12:58;97506.98;;;14.80;45.07
30856;BME280;17570;0.000;0.000;2023-03-01T12:15:49;97509.74;;;14.79;45.30
30856;BME280;17570;0.000;0.000;2023-03-01T12:18:28;97503.80;;;14.77;45.47
30856;BME280;17570;0.000;0.000;2023-03-01T12:26:20;97496.92;;;14.66;45.87
30856;BME280;17570;0.000;0.000;2023-03-01T12:44:53;97491.13;;;14.63;45.46
30856;BME280;17570;0.000;0.000;2023-03-01T12:49:56;97493.17;;;14.59;45.62
30856;BME280;17570;0.000;0.000;2023-03-01T12:52:32;97489.73;;;14.59;45.61
30856;BME280;17570;0.000;0.000;2023-03-01T12:54:53;97495.67;;;14.61;45.38
30856;BME280;17570;0.000;0.000;2023-03-01T12:57:26;97503.22;;;14.64;45.56
30856;BME280;17570;0.000;0.000;2023-03-01T13:00:06;97499.11;;;14.61;45.48
30856;BME280;17570;0.000;0.000;2023-03-01T13:02:39;97494.03;;;14.60;45.42
30856;BME280;17570;0.000;0.000;2023-03-01T13:07:53;97498.12;;;14.52;45.57
30856;BME280;17570;0.000;0.000;2023-03-01T13:13:22;97500.98;;;14.49;45.54
30856;BME280;17570;0.000;0.000;2023-03-01T13:15:50;97501.50;;;14.43;46.31
30856;BME280;17570;0.000;0.000;2023-03-01T13:20:52;97495.31;;;14.44;45.74
30856;BME280;17570;0.000;0.000;2023-03-01T13:23:24;97491.62;;;14.47;45.83
30856;BME280;17570;0.000;0.000;2023-03-01T13:31:07;97494.63;;;14.42;46.89
30856;BME280;17570;0.000;0.000;2023-03-01T13:33:42;97487.76;;;14.41;46.31
30856;BME280;17570;0.000;0.000;2023-03-01T13:36:10;97490.91;;;14.45;46.20
30856;BME280;17570;0.000;0.000;2023-03-01T13:47:03;97478.53;;;14.37;48.70
30856;BME280;17570;0.000;0.000;2023-03-01T13:49:33;97477.02;;;14.44;48.71
30856;BME280;17570;0.000;0.000;2023-03-01T13:51:55;97481.05;;;14.48;48.00
30856;BME280;17570;0.000;0.000;2023-03-01T13:54:26;97477.90;;;14.54;47.71
30856;BME280;17570;0.000;0.000;2023-03-01T13:56:54;97474.20;;;14.57;47.38
30856;BME280;17570;0.000;0.000;2023-03-01T13:59:22;97466.52;;;14.56;47.19
30856;BME280;17570;0.000;0.000;2023-03-01T14:01:55;97466.11;;;14.60;47.91
30856;BME280;17570;0.000;0.000;2023-03-01T14:04:21;97465.55;;;14.57;47.42
30856;BME280;17570;0.000;0.000;2023-03-01T14:06:49;97468.42;;;14.53;46.96
30856;BME280;17570;0.000;0.000;2023-03-01T14:11:52;97467.59;;;14.53;47.17
30856;BME280;17570;0.000;0.000;2023-03-01T14:14:29;97469.38;;;14.52;46.89
30856;BME280;17570;0.000;0.000;2023-03-01T14:17:42;97467.59;;;14.53;46.67
30856;BME280;17570;0.000;0.000;2023-03-01T14:19:26;97472.52;;;14.46;46.86
30856;BME280;17570;0.000;0.000;2023-03-01T14:24:46;97464.30;;;14.51;46.32
30856;BME280;17570;0.000;0.000;2023-03-01T14:27:13;97472.63;;;14.45;46.72
30856;BME280;17570;0.000;0.000;2023-03-01T14:29:41;97467.29;;;14.46;46.60
30856;BME280;17570;0.000;0.000;2023-03-01T14:34:44;97471.95;;;14.43;46.56
30856;BME280;17570;0.000;0.000;2023-03-01T14:37:31;97472.09;;;14.41;46.49
30856;BME280;17570;0.000;0.000;2023-03-01T14:39:44;97468.51;;;14.42;46.83
30856;BME280;17570;0.000;0.000;2023-03-01T14:42:15;97466.16;;;14.39;46.65
30856;BME280;17570;0.000;0.000;2023-03-01T14:44:44;97468.20;;;14.36;46.77